createdAt,value
2019-05-10T00:00:05.089Z,9.40
2019-05-10T00:02:50.073Z,9.40
2019-05-10T00:05:35.232Z,9.30
2019-05-10T00:08:20.459Z,9.30
2019-05-10T00:10:50.689Z,9.40
2019-05-10T00:13:22.157Z,9.40
2019-05-10T00:15:49.741Z,9.40
2019-05-10T00:18:17.292Z,9.40
2019-05-10T00:20:44.517Z,9.50
2019-05-10T00:23:12.016Z,9.40
2019-05-10T00:25:39.641Z,9.30
2019-05-10T00:28:06.866Z,9.30
2019-05-10T00:30:34.709Z,9.30
2019-05-10T00:33:01.935Z,9.20
2019-05-10T00:35:29.714Z,9.20
2019-05-10T00:37:56.945Z,9.10
2019-05-10T00:40:24.581Z,9.10
2019-05-10T00:42:51.834Z,9.10
2019-05-10T00:45:19.350Z,9.10
2019-05-10T00:47:46.591Z,9.10
2019-05-10T00:50:14.041Z,9.00
2019-05-10T00:52:41.272Z,9.00
2019-05-10T00:55:18.599Z,8.90
2019-05-10T00:57:37.645Z,9.00
2019-05-10T01:00:06.029Z,8.90
2019-05-10T01:02:33.253Z,8.80
2019-05-10T01:05:00.514Z,8.70
2019-05-10T01:07:27.738Z,8.50
2019-05-10T01:09:54.989Z,8.50
2019-05-10T01:12:22.220Z,8.40
2019-05-10T01:14:49.566Z,8.40
2019-05-10T01:17:17.045Z,8.20
2019-05-10T01:19:44.297Z,8.10
2019-05-10T01:22:11.862Z,8.10
2019-05-10T01:24:39.130Z,8.10
2019-05-10T01:27:06.357Z,8.10
2019-05-10T01:29:33.653Z,8.00
2019-05-10T01:32:00.973Z,8.10
2019-05-10T01:34:28.753Z,8.30
2019-05-10T01:36:55.977Z,8.30
2019-05-10T01:39:23.226Z,8.40
2019-05-10T01:41:50.481Z,8.30
2019-05-10T01:44:17.709Z,8.30
2019-05-10T01:46:44.979Z,8.40
2019-05-10T01:49:12.223Z,8.40
2019-05-10T01:51:39.841Z,8.40
2019-05-10T01:54:07.062Z,8.50
2019-05-10T01:56:34.666Z,8.60
2019-05-10T01:59:01.995Z,8.60
2019-05-10T02:01:29.345Z,8.70
2019-05-10T02:03:56.845Z,8.50
2019-05-10T02:06:24.113Z,8.40
2019-05-10T02:08:51.340Z,8.40
2019-05-10T02:11:18.654Z,8.30
2019-05-10T02:13:46.170Z,8.20
2019-05-10T02:16:13.390Z,8.10
2019-05-10T02:18:40.653Z,8.00
2019-05-10T02:21:07.969Z,8.00
2019-05-10T02:23:35.195Z,8.00
2019-05-10T02:26:09.666Z,7.80
2019-05-10T02:28:31.848Z,7.60
2019-05-10T02:30:59.101Z,7.50
2019-05-10T02:33:26.421Z,7.40
2019-05-10T02:35:53.728Z,7.30
2019-05-10T02:38:21.247Z,7.20
2019-05-10T02:40:48.593Z,7.20
2019-05-10T02:43:16.182Z,7.10
2019-05-10T02:45:43.447Z,7.00
2019-05-10T02:48:11.035Z,7.00
2019-05-10T02:50:38.285Z,6.90
2019-05-10T02:53:05.732Z,6.90
2019-05-10T02:55:34.990Z,6.80
2019-05-10T02:58:02.531Z,6.80
2019-05-10T03:00:33.524Z,6.80
2019-05-10T03:03:04.478Z,6.80
2019-05-10T03:05:33.718Z,6.70
2019-05-10T03:08:02.586Z,6.70
2019-05-10T03:10:32.650Z,6.60
2019-05-10T03:13:02.214Z,6.60
2019-05-10T03:15:35.787Z,6.50
2019-05-10T03:18:03.586Z,6.50
2019-05-10T03:20:32.423Z,6.50
2019-05-10T03:23:01.039Z,6.50
2019-05-10T03:25:28.490Z,6.40
2019-05-10T03:27:55.989Z,6.40
2019-05-10T03:30:23.253Z,6.40
2019-05-10T03:32:50.783Z,6.30
2019-05-10T03:35:18.039Z,6.50
2019-05-10T03:37:47.135Z,6.60
2019-05-10T03:40:14.561Z,6.60
2019-05-10T03:42:41.883Z,6.90
2019-05-10T03:45:09.590Z,6.80
2019-05-10T03:47:36.977Z,6.80
2019-05-10T03:50:04.648Z,6.80
2019-05-10T03:52:31.978Z,6.70
2019-05-10T03:54:59.292Z,6.70
2019-05-10T03:57:26.628Z,6.80
2019-05-10T03:59:53.975Z,6.70
2019-05-10T04:02:21.305Z,6.70
2019-05-10T04:04:48.947Z,6.70
2019-05-10T04:07:16.267Z,6.80
2019-05-10T04:09:43.807Z,6.90
2019-05-10T04:12:11.034Z,7.10
2019-05-10T04:14:38.548Z,7.10
2019-05-10T04:17:05.783Z,7.10
2019-05-10T04:19:33.474Z,7.10
2019-05-10T04:22:00.702Z,7.20
2019-05-10T04:24:28.216Z,7.20
2019-05-10T04:26:55.534Z,7.10
2019-05-10T04:29:23.070Z,7.10
2019-05-10T04:31:50.550Z,7.10
2019-05-10T04:34:17.903Z,7.10
2019-05-10T04:36:45.143Z,7.20
2019-05-10T04:39:12.801Z,7.30
2019-05-10T04:41:40.354Z,7.30
2019-05-10T04:44:07.677Z,7.30
2019-05-10T04:46:34.929Z,7.50
2019-05-10T04:49:02.400Z,7.50
2019-05-10T04:51:29.750Z,7.70
2019-05-10T04:53:57.111Z,7.90
2019-05-10T04:56:24.419Z,7.90
2019-05-10T04:58:51.743Z,7.70
2019-05-10T05:01:19.528Z,7.80
2019-05-10T05:03:46.862Z,7.80
2019-05-10T05:06:14.202Z,7.90
2019-05-10T05:08:41.426Z,8.00
2019-05-10T05:11:09.021Z,8.00
2019-05-10T05:13:36.609Z,8.20
2019-05-10T05:16:04.145Z,8.20
2019-05-10T05:18:31.952Z,8.20
2019-05-10T05:20:59.401Z,8.30
2019-05-10T05:23:26.632Z,8.30
2019-05-10T05:25:53.976Z,8.30
2019-05-10T05:28:23.133Z,8.50
2019-05-10T05:30:50.391Z,8.50
2019-05-10T05:33:17.721Z,8.50
2019-05-10T05:35:45.067Z,8.50
2019-05-10T05:38:12.566Z,8.60
2019-05-10T05:40:39.863Z,8.70
2019-05-10T05:43:08.136Z,8.80
2019-05-10T05:45:36.281Z,8.90
2019-05-10T05:48:03.531Z,9.00
2019-05-10T05:50:31.547Z,9.00
2019-05-10T05:52:58.885Z,9.20
2019-05-10T05:55:30.778Z,9.30
2019-05-10T05:57:59.288Z,9.30
2019-05-10T06:00:24.509Z,9.40
2019-05-10T06:02:51.733Z,9.40
2019-05-10T06:05:32.241Z,9.60
2019-05-10T06:07:51.941Z,9.80
2019-05-10T06:10:19.714Z,9.70
2019-05-10T06:12:50.433Z,9.70
2019-05-10T06:15:15.914Z,9.80
2019-05-10T06:20:44.501Z,10.90
2019-05-10T06:23:08.557Z,12.10
2019-05-10T06:25:40.028Z,12.10
2019-05-10T06:28:24.146Z,11.90
2019-05-10T06:30:35.814Z,12.10
2019-05-10T06:33:12.112Z,12.40
2019-05-10T06:35:32.618Z,12.70
2019-05-10T06:37:59.917Z,12.50
2019-05-10T06:40:34.803Z,12.20
2019-05-10T06:42:56.369Z,13.10
2019-05-10T06:45:23.622Z,12.70
2019-05-10T06:47:53.499Z,12.90
2019-05-10T06:50:29.259Z,12.50
2019-05-10T06:52:51.967Z,12.50
2019-05-10T06:55:18.644Z,12.30
2019-05-10T06:57:49.879Z,12.40
2019-05-10T07:00:15.372Z,12.70
2019-05-10T07:02:42.974Z,12.60
2019-05-10T07:05:10.301Z,11.90
2019-05-10T07:07:45.621Z,11.50
2019-05-10T07:10:17.997Z,11.40
2019-05-10T07:12:36.490Z,11.30
2019-05-10T07:15:05.503Z,11.20
2019-05-10T07:17:41.441Z,11.60
2019-05-10T07:20:02.215Z,11.80
2019-05-10T07:22:29.892Z,12.00
2019-05-10T07:25:03.941Z,12.20
2019-05-10T07:27:26.331Z,11.80
2019-05-10T07:29:53.599Z,11.80
2019-05-10T07:32:22.265Z,11.90
2019-05-10T07:34:58.991Z,11.70
2019-05-10T07:37:19.461Z,11.70
2019-05-10T07:39:46.714Z,11.80
2019-05-10T07:42:14.008Z,12.10
2019-05-10T07:44:46.028Z,12.30
2019-05-10T07:47:10.433Z,12.20
2019-05-10T07:49:37.877Z,12.40
2019-05-10T07:52:05.506Z,12.70
2019-05-10T07:54:37.377Z,13.10
2019-05-10T07:57:02.037Z,13.90
2019-05-10T07:59:33.913Z,14.40
2019-05-10T08:01:58.754Z,14.80
2019-05-10T08:04:28.922Z,15.00
2019-05-10T08:06:55.209Z,15.50
2019-05-10T08:09:22.402Z,15.60
2019-05-10T08:11:53.954Z,15.60
2019-05-10T08:14:19.490Z,16.30
2019-05-10T08:16:49.812Z,16.30
2019-05-10T08:19:16.209Z,15.10
2019-05-10T08:21:43.714Z,14.10
2019-05-10T08:24:16.108Z,13.40
2019-05-10T08:26:42.580Z,13.10
2019-05-10T08:29:13.629Z,12.80
2019-05-10T08:31:44.128Z,12.60
2019-05-10T08:34:08.169Z,12.40
2019-05-10T08:36:37.295Z,12.50
2019-05-10T08:39:10.702Z,12.70
2019-05-10T08:41:34.840Z,13.20
2019-05-10T08:44:04.739Z,13.60
2019-05-10T08:46:40.070Z,13.80
2019-05-10T08:49:02.144Z,14.20
2019-05-10T08:51:29.612Z,14.00
2019-05-10T08:53:58.357Z,13.80
2019-05-10T08:56:26.037Z,13.80
2019-05-10T08:58:53.834Z,14.10
2019-05-10T09:01:29.471Z,14.40
2019-05-10T09:03:55.102Z,14.50
2019-05-10T09:06:21.896Z,14.60
2019-05-10T09:08:52.861Z,14.50
2019-05-10T09:11:18.341Z,14.70
2019-05-10T09:13:46.278Z,15.10
2019-05-10T09:16:14.123Z,14.80
2019-05-10T09:18:46.672Z,14.30
2019-05-10T09:21:13.592Z,14.30
2019-05-10T09:23:39.820Z,14.10
2019-05-10T09:26:10.256Z,14.20
2019-05-10T09:28:36.213Z,14.20
2019-05-10T09:31:17.235Z,14.10
2019-05-10T09:33:32.946Z,13.80
2019-05-10T09:36:02.773Z,13.50
2019-05-10T09:38:37.180Z,13.20
2019-05-10T09:40:58.520Z,13.10
2019-05-10T09:43:25.828Z,13.00
2019-05-10T09:45:53.387Z,13.20
2019-05-10T09:48:22.791Z,13.60
2019-05-10T09:50:55.110Z,14.20
2019-05-10T09:53:23.625Z,15.40
2019-05-10T09:55:55.294Z,15.80
2019-05-10T09:58:21.718Z,15.60
2019-05-10T10:00:48.511Z,15.30
2019-05-10T10:03:16.185Z,15.00
2019-05-10T10:05:43.440Z,15.40
2019-05-10T10:08:11.161Z,15.50
2019-05-10T10:10:38.638Z,15.60
2019-05-10T10:13:13.557Z,15.60
2019-05-10T10:15:37.016Z,15.00
2019-05-10T10:18:04.428Z,14.80
2019-05-10T10:20:35.950Z,14.50
2019-05-10T10:23:03.427Z,14.40
2019-05-10T10:25:35.265Z,14.40
2019-05-10T10:28:00.054Z,14.20
2019-05-10T10:30:31.113Z,14.40
2019-05-10T10:32:58.122Z,14.30
2019-05-10T10:35:27.615Z,14.10
2019-05-10T10:37:57.453Z,14.00
2019-05-10T10:40:24.185Z,14.30
2019-05-10T10:42:51.796Z,15.10
2019-05-10T10:45:19.618Z,15.30
2019-05-10T10:47:47.276Z,15.30
2019-05-10T10:50:17.076Z,15.10
2019-05-10T10:52:43.828Z,14.90
2019-05-10T10:55:13.328Z,14.70
2019-05-10T10:57:40.479Z,14.50
2019-05-10T11:00:08.593Z,14.40
2019-05-10T11:02:36.112Z,14.60
2019-05-10T11:05:03.651Z,15.20
2019-05-10T11:07:32.871Z,16.20
2019-05-10T11:10:07.999Z,18.40
2019-05-10T11:12:30.727Z,19.50
2019-05-10T11:14:58.449Z,20.40
2019-05-10T11:17:25.681Z,21.10
2019-05-10T11:19:53.205Z,21.40
2019-05-10T11:22:21.505Z,20.10
2019-05-10T11:24:51.725Z,20.30
2019-05-10T11:27:18.008Z,21.00
2019-05-10T11:29:45.277Z,21.40
2019-05-10T11:32:16.619Z,20.90
2019-05-10T11:34:42.206Z,21.30
2019-05-10T11:37:09.513Z,21.50
2019-05-10T11:39:41.987Z,21.50
2019-05-10T11:42:07.398Z,21.00
2019-05-10T11:44:34.929Z,20.90
2019-05-10T11:47:02.449Z,21.50
2019-05-10T11:49:30.761Z,21.30
2019-05-10T11:51:58.900Z,19.50
2019-05-10T11:54:26.798Z,19.20
2019-05-10T11:59:27.403Z,21.10
2019-05-10T12:01:57.955Z,20.50
2019-05-10T12:04:28.899Z,19.50
2019-05-10T12:06:51.500Z,18.50
2019-05-10T12:09:21.258Z,18.00
2019-05-10T12:11:56.824Z,17.90
2019-05-10T12:14:17.536Z,18.20
2019-05-10T12:16:44.968Z,18.90
2019-05-10T12:19:20.549Z,18.80
2019-05-10T12:21:41.746Z,18.50
2019-05-10T12:24:26.225Z,18.20
2019-05-10T12:26:04.743Z,20.20
2019-05-10T12:29:11.979Z,18.10
2019-05-10T12:31:36.433Z,18.50
2019-05-10T12:34:09.039Z,18.90
2019-05-10T12:36:32.842Z,18.70
2019-05-10T12:39:01.764Z,19.60
2019-05-10T12:41:31.500Z,20.00
2019-05-10T12:44:04.152Z,20.00
2019-05-10T12:46:27.835Z,19.30
2019-05-10T12:48:55.071Z,20.10
2019-05-10T12:51:22.648Z,19.50
2019-05-10T12:53:52.069Z,18.40
2019-05-10T12:56:19.107Z,18.60
2019-05-10T12:58:56.324Z,18.20
2019-05-10T13:01:15.862Z,17.30
2019-05-10T13:03:43.097Z,17.60
2019-05-10T13:06:10.404Z,18.10
2019-05-10T13:08:37.916Z,19.10
2019-05-10T13:11:05.262Z,19.90
2019-05-10T13:13:32.807Z,20.60
2019-05-10T13:16:03.682Z,21.30
2019-05-10T13:18:49.889Z,21.10
2019-05-10T13:20:58.327Z,20.00
2019-05-10T13:23:25.585Z,19.20
2019-05-10T13:25:52.824Z,19.30
2019-05-10T13:28:20.415Z,19.00
2019-05-10T13:30:47.734Z,18.60
2019-05-10T13:33:27.816Z,18.80
2019-05-10T13:35:44.157Z,18.70
2019-05-10T13:38:11.528Z,18.50
2019-05-10T13:40:44.990Z,18.50
2019-05-10T13:43:07.958Z,18.60
2019-05-10T13:45:37.772Z,18.50
2019-05-10T13:48:04.498Z,18.20
2019-05-10T13:50:31.789Z,18.00
2019-05-10T13:52:59.118Z,17.80
2019-05-10T13:55:26.364Z,17.90
2019-05-10T13:57:54.297Z,18.20
2019-05-10T14:00:21.766Z,18.30
2019-05-10T14:02:49.100Z,18.30
2019-05-10T14:05:17.713Z,18.60
2019-05-10T14:07:50.944Z,18.60
2019-05-10T14:10:18.295Z,18.30
2019-05-10T14:12:44.579Z,18.10
2019-05-10T14:15:13.724Z,18.00
2019-05-10T14:17:41.177Z,18.30
2019-05-10T14:20:19.675Z,18.50
2019-05-10T14:22:37.897Z,18.40
2019-05-10T14:25:05.426Z,18.50
2019-05-10T14:27:36.038Z,18.60
2019-05-10T14:30:01.945Z,18.50
2019-05-10T14:32:31.435Z,18.60
2019-05-10T14:34:58.673Z,18.60
2019-05-10T14:37:25.914Z,18.50
2019-05-10T14:39:53.321Z,18.20
2019-05-10T14:42:23.826Z,18.10
2019-05-10T14:44:49.709Z,17.90
2019-05-10T14:47:17.215Z,17.70
2019-05-10T14:49:46.888Z,17.70
2019-05-10T14:52:13.552Z,17.70
2019-05-10T14:54:43.653Z,17.20
2019-05-10T14:57:09.944Z,16.90
2019-05-10T14:59:37.463Z,16.80
2019-05-10T15:02:05.087Z,16.90
2019-05-10T15:04:47.881Z,17.00
2019-05-10T15:07:01.650Z,17.10
2019-05-10T15:09:29.197Z,17.00
2019-05-10T15:11:56.698Z,17.20
2019-05-10T15:14:23.957Z,17.30
2019-05-10T15:16:51.201Z,17.30
2019-05-10T15:19:18.509Z,17.20
2019-05-10T15:21:45.849Z,17.20
2019-05-10T15:24:13.112Z,17.00
2019-05-10T15:26:43.738Z,16.70
2019-05-10T15:29:14.974Z,16.50
2019-05-10T15:31:38.974Z,16.50
2019-05-10T15:34:09.031Z,16.60
2019-05-10T15:36:36.277Z,16.50
2019-05-10T15:39:05.629Z,16.70
2019-05-10T15:41:32.894Z,16.90
2019-05-10T15:44:00.200Z,16.90
2019-05-10T15:46:35.345Z,16.90
2019-05-10T15:48:57.025Z,16.80
2019-05-10T15:51:35.699Z,16.80
2019-05-10T15:54:04.096Z,16.60
2019-05-10T15:56:22.623Z,16.30
2019-05-10T15:58:49.917Z,16.10
2019-05-10T16:01:26.358Z,15.90
2019-05-10T16:03:46.306Z,15.80
2019-05-10T16:06:14.267Z,16.10
2019-05-10T16:08:41.496Z,16.00
2019-05-10T16:11:18.175Z,15.80
2019-05-10T16:13:38.226Z,15.70
2019-05-10T16:16:05.730Z,15.60
2019-05-10T16:18:40.114Z,15.50
2019-05-10T16:21:02.176Z,15.60
2019-05-10T16:23:29.729Z,15.50
2019-05-10T16:25:57.186Z,15.50
2019-05-10T16:28:24.446Z,15.50
2019-05-10T16:30:52.014Z,15.40
2019-05-10T16:33:19.566Z,15.30
2019-05-10T16:35:49.548Z,15.20
2019-05-10T16:38:15.971Z,15.10
2019-05-10T16:40:44.607Z,15.00
2019-05-10T16:43:14.081Z,15.00
2019-05-10T16:45:41.240Z,15.00
2019-05-10T16:48:09.114Z,15.00
2019-05-10T16:50:36.727Z,14.90
2019-05-10T16:53:05.661Z,14.90
2019-05-10T16:55:35.508Z,14.90
2019-05-10T16:58:02.686Z,15.10
2019-05-10T17:00:30.219Z,15.10
2019-05-10T17:02:57.542Z,15.00
2019-05-10T17:05:24.840Z,15.00
2019-05-10T17:07:53.816Z,15.00
2019-05-10T17:10:21.488Z,15.10
2019-05-10T17:12:48.734Z,15.10
2019-05-10T17:15:16.027Z,15.00
2019-05-10T17:17:44.947Z,15.00
2019-05-10T17:20:15.785Z,14.80
2019-05-10T17:22:42.957Z,14.70
2019-05-10T17:25:10.698Z,14.70
2019-05-10T17:27:38.299Z,14.80
2019-05-10T17:30:06.160Z,14.70
2019-05-10T17:32:33.400Z,14.60
2019-05-10T17:35:04.625Z,14.70
2019-05-10T17:37:35.625Z,14.70
2019-05-10T17:39:59.250Z,14.60
2019-05-10T17:42:26.771Z,14.50
2019-05-10T17:44:55.263Z,14.50
2019-05-10T17:47:27.179Z,14.30
2019-05-10T17:49:52.318Z,14.20
2019-05-10T17:52:19.580Z,14.00
2019-05-10T17:54:46.896Z,13.80
2019-05-10T17:57:16.552Z,13.70
2019-05-10T17:59:47.103Z,13.50
2019-05-10T18:02:13.242Z,13.40
2019-05-10T18:04:40.573Z,13.20
2019-05-10T18:07:08.155Z,13.00
2019-05-10T18:09:35.658Z,13.00
2019-05-10T18:12:03.322Z,13.10
2019-05-10T18:14:30.558Z,13.10
2019-05-10T18:16:57.867Z,13.10
2019-05-10T18:19:26.536Z,13.00
2019-05-10T18:21:54.891Z,12.90
2019-05-10T18:24:23.052Z,12.70
2019-05-10T18:26:50.402Z,12.60
2019-05-10T18:29:17.838Z,12.50
2019-05-10T18:31:54.459Z,12.30
2019-05-10T18:34:14.490Z,12.20
2019-05-10T18:36:56.704Z,12.10
2019-05-10T18:39:15.736Z,12.10
2019-05-10T18:41:41.449Z,12.00
2019-05-10T18:44:14.281Z,11.90
2019-05-10T18:46:38.869Z,11.80
2019-05-10T18:49:06.202Z,11.80
2019-05-10T18:51:34.585Z,11.70
2019-05-10T18:54:02.194Z,11.70
2019-05-10T18:56:31.470Z,11.70
2019-05-10T18:59:06.554Z,11.60
2019-05-10T19:01:32.916Z,11.60
2019-05-10T19:03:57.140Z,11.60
2019-05-10T19:06:24.445Z,11.60
2019-05-10T19:08:51.685Z,11.70
2019-05-10T19:11:18.965Z,11.60
2019-05-10T19:13:49.636Z,11.60
2019-05-10T19:16:15.628Z,11.70
2019-05-10T19:18:42.984Z,11.80
2019-05-10T19:21:10.221Z,11.80
2019-05-10T19:23:37.724Z,11.80
2019-05-10T19:26:05.418Z,11.80
2019-05-10T19:28:32.786Z,11.70
2019-05-10T19:31:00.591Z,11.50
2019-05-10T19:33:29.850Z,11.50
2019-05-10T19:35:57.132Z,11.50
2019-05-10T19:38:24.652Z,11.40
2019-05-10T19:40:51.885Z,11.30
2019-05-10T19:43:21.577Z,11.20
2019-05-10T19:45:50.986Z,11.30
2019-05-10T19:48:17.797Z,11.40
2019-05-10T19:50:45.033Z,11.50
2019-05-10T19:53:12.281Z,11.40
2019-05-10T19:55:40.114Z,11.40
2019-05-10T19:58:07.711Z,11.40
2019-05-10T20:00:35.040Z,11.30
2019-05-10T20:03:02.427Z,11.30
2019-05-10T20:05:30.310Z,11.20
2019-05-10T20:07:57.560Z,11.20
2019-05-10T20:10:24.785Z,11.10
2019-05-10T20:12:52.040Z,11.00
2019-05-10T20:15:19.276Z,11.00
2019-05-10T20:17:47.014Z,11.00
2019-05-10T20:20:14.455Z,10.90
2019-05-10T20:22:41.954Z,10.80
2019-05-10T20:25:09.581Z,10.90
2019-05-10T20:27:37.174Z,10.80
2019-05-10T20:30:04.883Z,10.90
2019-05-10T20:32:32.977Z,10.80
2019-05-10T20:35:00.237Z,10.90
2019-05-10T20:37:27.465Z,11.00
2019-05-10T20:39:54.798Z,10.90
2019-05-10T20:42:22.026Z,10.90
2019-05-10T20:45:05.646Z,10.90
2019-05-10T20:47:18.458Z,10.90
2019-05-10T20:49:46.009Z,11.00
2019-05-10T20:52:13.366Z,10.80
2019-05-10T20:54:41.000Z,10.70
2019-05-10T20:57:08.235Z,10.80
2019-05-10T20:59:35.489Z,10.80
2019-05-10T21:02:02.726Z,10.80
2019-05-10T21:04:30.136Z,10.80
2019-05-10T21:06:57.365Z,10.70
2019-05-10T21:09:24.664Z,10.60
2019-05-10T21:11:51.888Z,10.50
2019-05-10T21:14:19.146Z,10.40
2019-05-10T21:16:46.377Z,10.50
2019-05-10T21:19:13.672Z,10.60
2019-05-10T21:21:40.901Z,10.70
2019-05-10T21:24:08.152Z,10.70
2019-05-10T21:26:35.696Z,10.70
2019-05-10T21:29:03.022Z,10.80
2019-05-10T21:31:30.572Z,10.80
2019-05-10T21:34:09.424Z,10.80
2019-05-10T21:36:27.328Z,10.70
2019-05-10T21:38:54.585Z,10.40
2019-05-10T21:41:21.796Z,10.40
2019-05-10T21:43:49.314Z,10.50
2019-05-10T21:46:16.746Z,10.60
2019-05-10T21:48:44.002Z,10.40
2019-05-10T21:51:11.732Z,10.30
2019-05-10T21:53:38.956Z,10.20
2019-05-10T21:56:06.485Z,10.20
2019-05-10T21:58:33.717Z,10.20
2019-05-10T22:01:00.965Z,10.20
2019-05-10T22:03:28.191Z,10.20
2019-05-10T22:05:55.742Z,10.30
2019-05-10T22:08:22.972Z,10.20
2019-05-10T22:10:50.489Z,10.10
2019-05-10T22:13:17.714Z,10.20
2019-05-10T22:15:45.235Z,10.10
2019-05-10T22:18:12.475Z,10.20
2019-05-10T22:20:39.829Z,10.20
2019-05-10T22:23:07.144Z,10.10
2019-05-10T22:25:34.506Z,10.20
2019-05-10T22:28:01.777Z,10.30
2019-05-10T22:30:29.676Z,10.10
2019-05-10T22:32:56.896Z,10.00
2019-05-10T22:35:24.154Z,10.00
2019-05-10T22:37:51.502Z,10.00
2019-05-10T22:40:18.752Z,9.90
2019-05-10T22:42:46.252Z,10.00
2019-05-10T22:45:13.749Z,10.00
2019-05-10T22:47:41.232Z,10.10
2019-05-10T22:50:09.257Z,10.00
2019-05-10T22:52:36.486Z,10.10
2019-05-10T22:55:03.978Z,10.10
2019-05-10T22:57:31.206Z,10.10
2019-05-10T22:59:58.457Z,10.10
2019-05-10T23:02:25.692Z,10.10
2019-05-10T23:04:52.946Z,10.00
2019-05-10T23:07:20.434Z,10.10
2019-05-10T23:09:47.693Z,10.10
2019-05-10T23:12:14.912Z,10.20
2019-05-10T23:14:42.077Z,10.10
2019-05-10T23:17:09.300Z,10.20
2019-05-10T23:19:36.809Z,10.10
2019-05-10T23:22:04.156Z,10.10
2019-05-10T23:24:38.424Z,10.20
2019-05-10T23:27:06.213Z,10.20
2019-05-10T23:29:33.481Z,10.10
2019-05-10T23:32:00.733Z,10.20
2019-05-10T23:34:28.214Z,10.20
2019-05-10T23:36:55.461Z,10.30
2019-05-10T23:39:23.125Z,10.30
2019-05-10T23:41:51.774Z,10.30
2019-05-10T23:44:19.006Z,10.30
2019-05-10T23:46:46.261Z,10.30
2019-05-10T23:49:13.761Z,10.20
2019-05-10T23:51:41.021Z,10.00
2019-05-10T23:54:08.244Z,10.10
2019-05-10T23:56:35.744Z,10.20
2019-05-10T23:59:02.978Z,10.20
